Time;durP1;ratioP1;P1;durP2;ratioP2;P2;SDS_P1;SDS_P2;PMS_P1;PMS_P2;Temp;Humidity;BMP_temperature;BMP_pressure;BME280_temperature;BME280_humidity;BME280_pressure;Samples;Min_cycle;Max_cycle;Signal;HPM_P1;HPM_P2
2024/04/21 00:01:21;;;;;;;;;;;;;;;;;;;;;
2024/04/21 00:04:21;;;;;;;;;;;;;;;;;;;;;
2024/04/21 00:07:04;;;;;;;11.33;1.70;;;;;;;;;;5268914;26;20014;-77
2024/04/21 00:09:43;;;;;;;;;;;;;;;;;;;;;
2024/04/21 00:12:09;;;;;;;8.93;1.00;;;;;;;;;;5270152;26;20010;-76
2024/04/21 00:14:48;;;;;;;;;;;;;;;;;;;;;
2024/04/21 00:17:43;;;;;;;3.00;0.70;;;;;;;;;;5269079;26;20010;-77
2024/04/21 00:20:14;;;;;;;7.00;1.53;;;;;;;;;;5276120;26;20010;-77
2024/04/21 00:22:48;;;;;;;9.10;1.27;;;;;;;;;;5298288;26;19995;-76
2024/04/21 00:25:14;;;;;;;4.30;0.83;;;;;;;;;;5300365;26;19995;-76
2024/04/21 00:27:58;;;;;;;8.13;1.30;;;;;;;;;;5268741;26;19995;-77
2024/04/21 00:30:32;;;;;;;9.80;1.37;;;;;;;;;;5293841;26;20007;-76
2024/04/21 00:33:14;;;;;;;;;;;;;;;;;;;;;
2024/04/21 00:35:52;;;;;;;14.37;1.23;;;;;;;;;;5270314;26;20006;-76
2024/04/21 00:39:03;;;;;;;5.20;0.90;;;;;;;;;;5266509;26;20035;-76
2024/04/21 00:41:45;;;;;;;9.77;1.10;;;;;;;;;;5405886;21;20008;-77
2024/04/21 00:44:28;;;;;;;8.80;1.15;;;;;;;;;;5370695;26;20000;-76
2024/04/21 00:47:09;;;;;;;;;;;;;;;;;;;;;
2024/04/21 00:49:53;;;;;;;9.87;1.90;;;;;;;;;;5374766;26;19919;-76
2024/04/21 00:52:20;;;;;;;8.87;1.20;;;;;;;;;;5355697;26;20043;-76
2024/04/21 00:55:06;;;;;;;;;;;;;;;;;;;;;
2024/04/21 01:00:32;;;;;;;6.93;1.90;;;;;;;;;;5370576;26;20003;-76
2024/04/21 01:03:18;;;;;;;8.90;1.33;;;;;;;;;;5371432;26;20005;-75
2024/04/21 01:06:02;;;;;;;5.73;1.30;;;;;;;;;;5367931;26;20005;-76
2024/04/21 01:08:32;;;;;;;7.70;1.37;;;;;;;;;;5396688;26;20009;-76
2024/04/21 01:11:01;;;;;;;7.73;2.90;;;;;;;;;;5369423;26;19989;-76
2024/04/21 01:13:35;;;;;;;13.20;0.83;;;;;;;;;;5367993;26;20007;-75
2024/04/21 01:16:17;;;;;;;8.70;1.03;;;;;;;;;;5369253;26;19989;-75
2024/04/21 01:18:45;;;;;;;6.33;1.53;;;;;;;;;;5366970;26;19985;-75
2024/04/21 01:21:15;;;;;;;8.00;0.87;;;;;;;;;;5362713;26;20139;-76
2024/04/21 01:23:57;;;;;;;3.17;1.00;;;;;;;;;;5358920;26;20004;-75
2024/04/21 01:26:38;;;;;;;3.97;1.33;;;;;;;;;;5368355;26;20004;-75
2024/04/21 01:29:07;;;;;;;6.47;0.77;;;;;;;;;;5371614;26;20018;-76
2024/04/21 01:34:27;;;;;;;7.37;0.77;;;;;;;;;;5369403;26;20011;-76
2024/04/21 01:37:24;;;;;;;2.97;1.57;;;;;;;;;;5400298;26;19989;-76
2024/04/21 01:40:03;;;;;;;7.93;0.77;;;;;;;;;;5330711;26;19996;-75
2024/04/21 01:42:29;;;;;;;2.83;1.33;;;;;;;;;;5371858;26;19989;-75
2024/04/21 01:44:56;;;;;;;6.07;0.90;;;;;;;;;;5371262;26;20009;-75
2024/04/21 01:47:27;;;;;;;10.03;1.43;;;;;;;;;;5373194;26;20004;-76
2024/04/21 01:50:23;;;;;;;;;;;;;;;;;;;;;
2024/04/21 01:52:58;;;;;;;7.17;1.13;;;;;;;;;;5370036;26;19993;-76
2024/04/21 01:55:33;;;;;;;1.87;0.50;;;;;;;;;;5370779;26;20045;-76
2024/04/21 01:58:02;;;;;;;1.83;0.60;;;;;;;;;;5397728;26;20017;-76
2024/04/21 02:00:33;;;;;;;8.73;0.70;;;;;;;;;;5363890;26;20001;-76
2024/04/21 02:03:01;;;;;;;3.67;0.67;;;;;;;;;;5369265;26;19996;-76
2024/04/21 02:05:27;;;;;;;2.03;0.60;;;;;;;;;;5371155;26;19989;-76
2024/04/21 02:07:53;;;;;;;6.03;1.00;;;;;;;;;;5373302;26;19985;-76
2024/04/21 02:10:21;;;;;;;2.03;0.70;;;;;;;;;;5372202;26;20091;-76
2024/04/21 02:12:47;;;;;;;6.40;1.23;;;;;;;;;;5369408;26;19989;-76
2024/04/21 02:15:13;;;;;;;6.33;0.70;;;;;;;;;;5370924;26;20013;-76
2024/04/21 02:17:41;;;;;;;6.73;1.00;;;;;;;;;;5371222;26;20061;-76
2024/04/21 02:20:10;;;;;;;3.53;0.87;;;;;;;;;;5368715;26;20025;-76
2024/04/21 02:22:36;;;;;;;4.67;0.80;;;;;;;;;;5395354;26;20052;-76
2024/04/21 02:25:07;;;;;;;4.47;1.27;;;;;;;;;;5368421;26;20016;-77
2024/04/21 02:27:33;;;;;;;3.73;1.20;;;;;;;;;;5370018;26;19995;-78
2024/04/21 02:30:01;;;;;;;1.17;0.60;;;;;;;;;;5369036;26;20005;-84
2024/04/21 02:32:27;;;;;;;4.70;0.50;;;;;;;;;;5365483;26;20051;-86
2024/04/21 02:34:53;;;;;;;2.57;0.43;;;;;;;;;;5396848;26;20001;-90
2024/04/21 02:37:20;;;;;;;0.90;0.40;;;;;;;;;;5372475;26;19996;-84
2024/04/21 02:39:49;;;;;;;1.87;0.77;;;;;;;;;;5371198;26;20028;-83
2024/04/21 02:42:20;;;;;;;1.60;0.60;;;;;;;;;;5368662;26;20016;-83
2024/04/21 02:44:55;;;;;;;4.53;0.80;;;;;;;;;;5396511;26;19988;-85
2024/04/21 02:47:21;;;;;;;0.70;0.33;;;;;;;;;;5396825;26;20262;-84
2024/04/21 02:49:47;;;;;;;3.50;0.90;;;;;;;;;;5373094;26;20227;-80
2024/04/21 02:52:19;;;;;;;9.53;0.70;;;;;;;;;;5369614;26;20258;-80
2024/04/21 02:54:45;;;;;;;4.27;0.60;;;;;;;;;;5369459;26;19989;-81
2024/04/21 02:57:11;;;;;;;1.40;0.50;;;;;;;;;;5374681;26;20216;-80
2024/04/21 02:59:39;;;;;;;0.47;0.30;;;;;;;;;;5365466;26;20054;-82
2024/04/21 03:02:05;;;;;;;3.37;0.60;;;;;;;;;;5370615;26;20238;-80
2024/04/21 03:04:31;;;;;;;1.40;0.43;;;;;;;;;;5371991;26;20246;-80
2024/04/21 03:07:05;;;;;;;3.70;0.50;;;;;;;;;;5366651;26;20005;-80
2024/04/21 03:09:31;;;;;;;1.60;0.60;;;;;;;;;;5369021;26;20247;-80
2024/04/21 03:11:59;;;;;;;3.33;0.53;;;;;;;;;;5370147;26;20282;-79
2024/04/21 03:14:27;;;;;;;1.67;0.67;;;;;;;;;;5386045;26;20027;-79
2024/04/21 03:17:05;;;;;;;3.20;0.70;;;;;;;;;;5355919;26;20247;-79
2024/04/21 03:19:31;;;;;;;0.90;0.50;;;;;;;;;;5367900;26;20000;-81
2024/04/21 03:22:00;;;;;;;3.97;0.53;;;;;;;;;;5370458;26;20236;-80
2024/04/21 03:24:28;;;;;;;7.77;1.20;;;;;;;;;;5369341;26;20243;-80
2024/04/21 03:26:54;;;;;;;0.47;0.30;;;;;;;;;;5366240;26;19997;-80
2024/04/21 03:29:23;;;;;;;2.87;0.47;;;;;;;;;;5355161;26;20280;-80
2024/04/21 03:31:53;;;;;;;1.47;0.50;;;;;;;;;;5375833;26;19985;-80
2024/04/21 03:34:25;;;;;;;2.93;0.50;;;;;;;;;;5372730;26;20231;-81
2024/04/21 03:36:56;;;;;;;5.30;0.47;;;;;;;;;;5370758;26;20221;-80
2024/04/21 03:39:22;;;;;;;4.50;0.50;;;;;;;;;;5369009;26;19993;-79
2024/04/21 03:42:01;;;;;;;1.67;0.50;;;;;;;;;;5371980;26;19999;-79
2024/04/21 03:44:34;;;;;;;3.60;0.50;;;;;;;;;;5384790;26;19996;-79
2024/04/21 03:47:05;;;;;;;0.67;0.40;;;;;;;;;;5398571;26;19985;-80
2024/04/21 03:49:34;;;;;;;4.90;0.47;;;;;;;;;;5357888;26;19989;-79
2024/04/21 03:52:03;;;;;;;1.67;0.43;;;;;;;;;;5364868;26;20235;-79
2024/04/21 03:57:29;;;;;;;3.70;0.60;;;;;;;;;;5369920;26;20241;-80
2024/04/21 04:00:00;;;;;;;0.47;0.30;;;;;;;;;;5370047;26;19996;-79
2024/04/21 04:02:29;;;;;;;2.83;0.50;;;;;;;;;;5370975;26;20011;-79
2024/04/21 04:04:58;;;;;;;4.27;0.60;;;;;;;;;;5366478;26;19989;-79
2024/04/21 04:07:26;;;;;;;3.87;0.47;;;;;;;;;;5353938;26;20013;-79
2024/04/21 04:10:02;;;;;;;;;;;;;;;;;;;;;
2024/04/21 04:12:41;;;;;;;;;;;;;;;;;;;;;
2024/04/21 04:15:23;;;;;;;2.33;0.50;;;;;;;;;;5370327;26;20003;-78
2024/04/21 04:17:57;;;;;;;5.30;0.70;;;;;;;;;;5371662;26;19993;-79
2024/04/21 04:20:23;;;;;;;1.80;0.70;;;;;;;;;;5368645;26;20287;-79
2024/04/21 04:22:49;;;;;;;3.40;0.90;;;;;;;;;;5366143;26;20227;-79
2024/04/21 04:25:26;;;;;;;7.50;1.10;;;;;;;;;;5373961;26;19993;-79
2024/04/21 04:28:01;;;;;;;11.83;1.20;;;;;;;;;;5399702;26;21142;-79
2024/04/21 04:30:29;;;;;;;1.07;0.70;;;;;;;;;;5375106;26;20005;-79
2024/04/21 04:33:00;;;;;;;5.77;1.37;;;;;;;;;;5375085;26;20020;-79
2024/04/21 04:35:27;;;;;;;2.53;0.90;;;;;;;;;;5373443;26;20013;-79
2024/04/21 04:38:03;;;;;;;;;;;;;;;;;;;;;
2024/04/21 04:40:35;;;;;;;4.93;1.00;;;;;;;;;;5368532;26;20008;-79
2024/04/21 04:43:04;;;;;;;2.22;0.52;;;;;;;;;;5356673;26;19997;-78
2024/04/21 04:48:54;;;;;;;;;;;;;;;;;;5370648;26;20001;-79
2024/04/21 04:51:20;;;;;;;4.63;1.17;;;;;;;;;;5367607;26;19918;-80
2024/04/21 04:53:49;;;;;;;6.27;1.27;;;;;;;;;;5377814;26;19992;-79
2024/04/21 04:56:24;;;;;;;2.10;0.60;;;;;;;;;;5373692;26;20000;-79
2024/04/21 04:58:56;;;;;;;4.63;1.00;;;;;;;;;;5365538;26;20009;-79
2024/04/21 05:01:44;;;;;;;7.53;1.10;;;;;;;;;;5373736;26;20000;-79
2024/04/21 05:04:13;;;;;;;6.23;0.70;;;;;;;;;;5373512;26;19993;-79
2024/04/21 05:06:43;;;;;;;5.80;1.03;;;;;;;;;;5398300;26;19993;-79
2024/04/21 05:09:22;;;;;;;5.60;1.00;;;;;;;;;;5387956;26;19996;-78
2024/04/21 05:11:52;;;;;;;5.90;1.30;;;;;;;;;;5392688;26;20044;-79
2024/04/21 05:14:20;;;;;;;2.90;0.80;;;;;;;;;;5362062;26;20039;-79
2024/04/21 05:16:49;;;;;;;2.07;0.50;;;;;;;;;;5360203;26;19985;-79
2024/04/21 05:19:20;;;;;;;3.23;0.73;;;;;;;;;;5388868;26;19996;-79
2024/04/21 05:22:08;;;;;;;3.30;0.80;;;;;;;;;;5365657;26;19996;-79
2024/04/21 05:25:02;;;;;;;;;;;;;;;;;;;;;
2024/04/21 05:27:31;;;;;;;4.03;0.87;;;;;;;;;;5358629;26;19990;-78
2024/04/21 05:30:00;;;;;;;4.43;0.90;;;;;;;;;;5362347;26;19993;-78
2024/04/21 05:32:34;;;;;;;2.60;0.80;;;;;;;;;;5361142;26;19989;-78
2024/04/21 05:35:10;;;;;;;;;;;;;;;;;;;;;
2024/04/21 05:37:39;;;;;;;4.93;0.70;;;;;;;;;;5363376;26;20240;-78
2024/04/21 05:40:23;;;;;;;2.07;0.80;;;;;;;;;;5372326;26;19997;-78
2024/04/21 05:42:49;;;;;;;4.30;0.77;;;;;;;;;;5375420;26;20013;-79
2024/04/21 05:45:29;;;;;;;4.10;0.63;;;;;;;;;;5372483;26;20003;-78
2024/04/21 05:47:57;;;;;;;2.37;0.50;;;;;;;;;;5370488;26;20048;-78
2024/04/21 05:50:36;;;;;;;;;;;;;;;;;;;;;
2024/04/21 05:53:10;;;;;;;2.83;0.87;;;;;;;;;;5370255;26;19993;-78
2024/04/21 05:55:38;;;;;;;1.67;0.70;;;;;;;;;;5366918;26;19993;-78
2024/04/21 05:58:12;;;;;;;5.60;0.93;;;;;;;;;;5367078;26;20077;-78
2024/04/21 06:00:40;;;;;;;1.73;0.70;;;;;;;;;;5377493;26;20015;-78
2024/04/21 06:06:01;;;;;;;3.57;0.90;;;;;;;;;;5371055;26;20020;-79
2024/04/21 06:08:30;;;;;;;5.97;0.70;;;;;;;;;;5374003;26;19993;-79
2024/04/21 06:11:01;;;;;;;1.77;0.57;;;;;;;;;;5371982;26;19989;-79
2024/04/21 06:13:37;;;;;;;;;;;;;;;;;;;;;
2024/04/21 06:16:11;;;;;;;4.33;0.83;;;;;;;;;;5370946;26;20008;-79
2024/04/21 06:18:50;;;;;;;5.60;1.57;;;;;;;;;;5353988;26;20004;-78
2024/04/21 06:21:23;;;;;;;2.67;0.80;;;;;;;;;;5367897;26;20001;-79
2024/04/21 06:23:52;;;;;;;5.67;1.47;;;;;;;;;;5369291;26;20005;-79
2024/04/21 06:26:23;;;;;;;3.00;1.80;;;;;;;;;;5370081;26;20001;-78
2024/04/21 06:28:49;;;;;;;6.00;1.33;;;;;;;;;;5371253;26;20036;-79
2024/04/21 06:31:17;;;;;;;9.50;1.70;;;;;;;;;;5361187;26;20005;-79
2024/04/21 06:33:53;;;;;;;10.57;1.70;;;;;;;;;;5363704;26;19992;-78
2024/04/21 06:36:40;;;;;;;4.63;1.70;;;;;;;;;;5354484;26;19997;-79
2024/04/21 06:39:13;;;;;;;4.73;1.40;;;;;;;;;;5365137;26;19996;-78
2024/04/21 06:41:41;;;;;;;6.67;1.80;;;;;;;;;;5367285;26;20043;-79
2024/04/21 06:44:20;;;;;;;;;;;;;;;;;;;;;
2024/04/21 06:46:55;;;;;;;7.57;3.77;;;;;;;;;;5368091;26;20004;-78
2024/04/21 06:49:28;;;;;;;9.00;2.60;;;;;;;;;;5396371;26;20012;-79
2024/04/21 06:52:05;;;;;;;6.27;3.37;;;;;;;;;;5364056;26;19996;-78
2024/04/21 06:54:36;;;;;;;9.93;2.53;;;;;;;;;;5396179;26;19999;-80
2024/04/21 06:57:05;;;;;;;8.03;3.33;;;;;;;;;;5366063;26;20000;-79
2024/04/21 06:59:33;;;;;;;4.00;2.40;;;;;;;;;;5363198;26;20034;-79
2024/04/21 07:02:17;;;;;;;6.13;2.03;;;;;;;;;;5368391;26;20056;-79
2024/04/21 07:04:52;;;;;;;7.63;1.50;;;;;;;;;;5362717;26;20005;-78
2024/04/21 07:07:50;;;;;;;6.50;1.73;;;;;;;;;;5367456;26;20012;-79
2024/04/21 07:10:16;;;;;;;5.97;3.10;;;;;;;;;;5367779;26;19997;-78
2024/04/21 07:12:45;;;;;;;7.80;2.47;;;;;;;;;;5392470;26;20040;-78
2024/04/21 07:15:16;;;;;;;6.60;1.70;;;;;;;;;;5369485;26;19995;-78
2024/04/21 07:17:45;;;;;;;14.25;4.07;;;;;;;;;;5370313;26;20009;-78
2024/04/21 07:20:28;;;;;;;;;;;;;;;;;;;;;
2024/04/21 07:22:57;;;;;;;7.47;2.60;;;;;;;;;;5366115;26;19996;-78
2024/04/21 07:25:23;;;;;;;7.40;2.80;;;;;;;;;;5367591;26;19999;-78
2024/04/21 07:27:57;;;;;;;7.67;2.83;;;;;;;;;;5370085;26;19993;-78
2024/04/21 07:30:32;;;;;;;8.17;3.00;;;;;;;;;;5355286;26;20024;-78
2024/04/21 07:33:04;;;;;;;9.83;2.93;;;;;;;;;;5363640;26;19989;-78
2024/04/21 07:35:35;;;;;;;8.63;3.70;;;;;;;;;;5365176;26;19997;-77
2024/04/21 07:38:01;;;;;;;11.27;4.00;;;;;;;;;;5364765;26;19996;-77
2024/04/21 07:40:30;;;;;;;9.00;3.00;;;;;;;;;;5367991;26;20020;-77
2024/04/21 07:42:56;;;;;;;13.50;3.60;;;;;;;;;;5363123;26;19993;-78
2024/04/21 07:45:29;;;;;;;11.10;3.53;;;;;;;;;;5367809;26;19989;-77
2024/04/21 07:47:55;;;;;;;6.17;2.80;;;;;;;;;;5363531;26;19993;-77
2024/04/21 07:50:53;;;;;;;7.80;2.70;;;;;;;;;;5367296;26;20009;-77
2024/04/21 07:53:31;;;;;;;4.50;2.73;;;;;;;;;;5358077;26;20005;-78
2024/04/21 07:56:03;;;;;;;7.93;2.67;;;;;;;;;;5392897;26;19993;-77
2024/04/21 07:58:37;;;;;;;6.88;2.85;;;;;;;;;;5369498;26;19993;-77
2024/04/21 08:01:09;;;;;;;9.37;2.47;;;;;;;;;;5372490;26;20004;-77
2024/04/21 08:03:42;;;;;;;7.97;2.07;;;;;;;;;;5364102;26;20001;-77
2024/04/21 08:06:12;;;;;;;7.70;2.33;;;;;;;;;;5366824;26;20233;-77
2024/04/21 08:08:43;;;;;;;4.13;1.73;;;;;;;;;;5364509;26;20028;-77
2024/04/21 08:11:15;;;;;;;3.75;1.80;;;;;;;;;;5370638;26;20059;-77
2024/04/21 08:13:45;;;;;;;7.40;1.60;;;;;;;;;;5394008;26;20009;-77
2024/04/21 08:16:21;;;;;;;5.87;1.80;;;;;;;;;;5370070;26;19992;-77
2024/04/21 08:18:56;;;;;;;2.70;1.47;;;;;;;;;;5357816;26;20016;-77
2024/04/21 08:21:43;;;;;;;3.77;1.70;;;;;;;;;;5395257;26;22053;-77
2024/04/21 08:24:26;;;;;;;3.13;1.30;;;;;;;;;;5366644;26;20004;-77
2024/04/21 08:27:02;;;;;;;2.27;1.60;;;;;;;;;;5367991;26;20328;-77
2024/04/21 08:29:37;;;;;;;3.80;1.43;;;;;;;;;;5364244;26;19993;-77
2024/04/21 08:32:14;;;;;;;4.77;1.60;;;;;;;;;;5395192;26;19989;-77
2024/04/21 08:34:52;;;;;;;5.50;1.70;;;;;;;;;;5368891;26;19994;-76
2024/04/21 08:37:30;;;;;;;8.13;1.80;;;;;;;;;;5367437;26;20009;-77
2024/04/21 08:39:58;;;;;;;2.87;1.47;;;;;;;;;;5367940;26;19993;-77
2024/04/21 08:43:01;;;;;;;;;;;;;;;;;;;;;
2024/04/21 08:45:31;;;;;;;7.40;2.00;;;;;;;;;;5369146;26;19993;-76
2024/04/21 08:48:08;;;;;;;5.67;1.63;;;;;;;;;;5396802;26;20001;-77
2024/04/21 08:50:45;;;;;;;2.97;1.50;;;;;;;;;;5366874;26;20004;-76
2024/04/21 08:53:20;;;;;;;6.30;1.70;;;;;;;;;;5373189;26;19996;-76
2024/04/21 08:55:53;;;;;;;6.63;1.50;;;;;;;;;;5374632;26;19998;-76
2024/04/21 08:58:45;;;;;;;3.93;1.73;;;;;;;;;;5371243;26;20001;-77
2024/04/21 09:01:18;;;;;;;4.55;1.77;;;;;;;;;;5358266;26;20000;-76
2024/04/21 09:03:57;;;;;;;6.10;2.20;;;;;;;;;;5397503;26;19997;-76
2024/04/21 09:09:28;;;;;;;10.10;3.23;;;;;;;;;;5366216;26;19989;-76
2024/04/21 09:17:50;;;;;;;3.20;2.23;;;;;;;;;;5369206;26;20013;-76
2024/04/21 09:20:16;;;;;;;3.47;2.10;;;;;;;;;;5394736;26;19989;-76
2024/04/21 09:23:00;;;;;;;4.57;2.27;;;;;;;;;;5368470;26;20214;-76
2024/04/21 09:25:42;;;;;;;6.17;1.87;;;;;;;;;;5367041;26;20005;-76
2024/04/21 09:28:29;;;;;;;4.25;2.40;;;;;;;;;;5393983;26;20007;-76
2024/04/21 09:31:00;;;;;;;3.63;2.27;;;;;;;;;;5367711;26;19997;-77
2024/04/21 09:36:51;;;;;;;4.97;2.07;;;;;;;;;;5366161;26;20040;-77
2024/04/21 09:39:30;;;;;;;;;;;;;;;;;;;;;
2024/04/21 09:42:43;;;;;;;5.27;2.03;;;;;;;;;;5365450;26;20008;-76
2024/04/21 09:45:28;;;;;;;7.55;2.38;;;;;;;;;;5321992;26;20053;-77
2024/04/21 09:47:58;;;;;;;2.73;1.90;;;;;;;;;;5321475;26;19991;-77
2024/04/21 09:50:32;;;;;;;4.80;2.03;;;;;;;;;;5290302;26;20013;-76
2024/04/21 09:53:27;;;;;;;6.60;2.30;;;;;;;;;;5292379;26;20017;-76
2024/04/21 09:56:14;;;;;;;2.80;2.00;;;;;;;;;;5317943;26;19991;-76
2024/04/21 09:58:55;;;;;;;2.63;1.70;;;;;;;;;;5321231;26;19998;-76
2024/04/21 10:01:54;;;;;;;2.17;1.60;;;;;;;;;;5294522;26;20012;-76
2024/04/21 10:04:21;;;;;;;2.70;1.83;;;;;;;;;;5321336;26;20026;-76
2024/04/21 10:07:10;;;;;;;2.50;1.60;;;;;;;;;;5297271;26;19996;-76
2024/04/21 10:09:41;;;;;;;4.70;1.60;;;;;;;;;;5294355;26;20009;-76
2024/04/21 10:12:16;;;;;;;2.53;1.30;;;;;;;;;;5322106;26;19998;-76
2024/04/21 10:14:48;;;;;;;4.83;1.47;;;;;;;;;;5326796;26;20001;-81
2024/04/21 10:17:14;;;;;;;2.72;1.80;;;;;;;;;;5371593;26;19996;-78
2024/04/21 10:19:43;;;;;;;2.40;1.70;;;;;;;;;;5367928;26;20001;-78
2024/04/21 10:22:15;;;;;;;4.03;1.27;;;;;;;;;;5368553;26;19996;-76
2024/04/21 10:25:16;;;;;;;2.92;1.80;;;;;;;;;;5369405;26;20008;-76
2024/04/21 10:27:45;;;;;;;2.73;1.50;;;;;;;;;;5312206;26;19993;-77
2024/04/21 10:30:39;;;;;;;2.47;1.47;;;;;;;;;;5395489;26;20004;-76
2024/04/21 10:35:55;;;;;;;3.47;1.70;;;;;;;;;;5430720;21;19992;-76
2024/04/21 10:38:24;;;;;;;3.40;1.80;;;;;;;;;;5434215;26;20007;-78
2024/04/21 10:41:05;;;;;;;;;;;;;;;;;;;;;
2024/04/21 10:43:53;;;;;;;3.73;1.73;;;;;;;;;;5391097;26;19993;-77
2024/04/21 10:46:23;;;;;;;2.73;1.43;;;;;;;;;;5364833;26;19992;-77
2024/04/21 10:48:58;;;;;;;2.47;1.60;;;;;;;;;;5436633;21;20048;-77
2024/04/21 10:51:27;;;;;;;1.77;1.10;;;;;;;;;;5401320;26;19980;-77
2024/04/21 10:53:53;;;;;;;2.73;1.73;;;;;;;;;;5394760;26;19992;-77
2024/04/21 10:56:28;;;;;;;2.50;1.50;;;;;;;;;;5402655;26;19995;-77
2024/04/21 10:59:04;;;;;;;2.07;1.30;;;;;;;;;;5391473;26;19996;-78
2024/04/21 11:01:49;;;;;;;;;;;;;;;;;;;;;
2024/04/21 11:04:25;;;;;;;2.20;1.27;;;;;;;;;;5396367;26;19999;-77
2024/04/21 11:07:05;;;;;;;2.87;1.50;;;;;;;;;;5385600;26;20012;-76
2024/04/21 11:09:31;;;;;;;2.20;1.30;;;;;;;;;;5398224;26;20003;-77
2024/04/21 11:11:59;;;;;;;2.73;1.57;;;;;;;;;;5364578;26;20000;-76
2024/04/21 11:15:01;;;;;;;;;;;;;;;;;;;;;
2024/04/21 11:17:27;;;;;;;2.13;1.30;;;;;;;;;;5393181;26;20003;-77
2024/04/21 11:20:06;;;;;;;;;;;;;;;;;;;;;
2024/04/21 11:22:36;;;;;;;2.13;1.30;;;;;;;;;;5397856;26;19996;-77
2024/04/21 11:28:13;;;;;;;1.27;1.13;;;;;;;;;;5384378;26;19992;-77
2024/04/21 11:31:09;;;;;;;1.50;1.00;;;;;;;;;;5335971;26;19994;-76
2024/04/21 11:34:16;;;;;;;1.23;0.77;;;;;;;;;;5329070;26;19993;-76
2024/04/21 11:36:54;;;;;;;1.60;1.20;;;;;;;;;;5212264;27;20020;-76
2024/04/21 11:39:32;;;;;;;2.30;1.03;;;;;;;;;;5297686;26;20034;-76
2024/04/21 11:44:57;;;;;;;1.60;0.90;;;;;;;;;;5332093;26;20010;-76
2024/04/21 11:47:39;;;;;;;1.50;1.03;;;;;;;;;;5329458;26;20018;-76
2024/04/21 11:50:10;;;;;;;1.42;1.10;;;;;;;;;;5329548;26;20004;-77
2024/04/21 11:52:51;;;;;;;1.87;0.77;;;;;;;;;;5302093;26;19994;-76
2024/04/21 11:55:25;;;;;;;0.67;0.60;;;;;;;;;;5368932;26;20044;-76
2024/04/21 11:57:56;;;;;;;1.43;0.87;;;;;;;;;;5396617;26;19985;-77
2024/04/21 12:00:24;;;;;;;0.97;0.57;;;;;;;;;;5401334;26;21742;-77
2024/04/21 12:03:02;;;;;;;0.90;0.40;;;;;;;;;;5396390;26;20034;-77
2024/04/21 12:05:52;;;;;;;1.00;0.60;;;;;;;;;;5396967;26;20032;-78
2024/04/21 12:08:21;;;;;;;0.70;0.40;;;;;;;;;;5349376;26;19992;-77
2024/04/21 12:11:00;;;;;;;1.00;0.37;;;;;;;;;;5392868;26;20011;-77
2024/04/21 12:13:43;;;;;;;1.10;1.00;;;;;;;;;;5400478;26;20016;-77
2024/04/21 12:16:15;;;;;;;1.07;0.67;;;;;;;;;;5384501;26;19992;-77
2024/04/21 12:18:52;;;;;;;1.50;0.80;;;;;;;;;;5399961;26;20012;-77
2024/04/21 12:21:36;;;;;;;1.40;0.77;;;;;;;;;;5370410;26;20127;-77
2024/04/21 12:24:02;;;;;;;1.37;0.80;;;;;;;;;;5399645;26;20004;-76
2024/04/21 12:26:31;;;;;;;1.80;0.70;;;;;;;;;;5398727;26;20039;-74
2024/04/21 12:29:07;;;;;;;1.33;0.80;;;;;;;;;;5391164;26;20004;-75
2024/04/21 12:31:44;;;;;;;0.90;0.80;;;;;;;;;;5400710;26;20010;-77
2024/04/21 12:34:16;;;;;;;2.00;0.83;;;;;;;;;;5372280;26;19999;-76
2024/04/21 12:36:52;;;;;;;2.28;1.00;;;;;;;;;;5402287;26;19999;-76
2024/04/21 12:39:51;;;;;;;1.17;0.77;;;;;;;;;;5368844;26;19996;-77
2024/04/21 12:42:25;;;;;;;1.87;0.80;;;;;;;;;;5395010;26;19996;-76
2024/04/21 12:44:57;;;;;;;1.73;0.80;;;;;;;;;;5393720;26;20004;-76
2024/04/21 12:47:26;;;;;;;1.20;0.70;;;;;;;;;;5399493;26;19996;-76
2024/04/21 12:49:56;;;;;;;1.00;0.70;;;;;;;;;;5399121;26;20003;-76
2024/04/21 12:52:33;;;;;;;3.30;1.77;;;;;;;;;;5364503;26;19992;-76
2024/04/21 12:55:25;;;;;;;1.10;0.77;;;;;;;;;;5395716;26;19988;-76
2024/04/21 12:58:28;;;;;;;3.20;1.20;;;;;;;;;;5394684;26;19992;-76
2024/04/21 13:00:57;;;;;;;;;;;;;;;;;;5401490;26;19992;-75
2024/04/21 13:03:23;;;;;;;1.37;0.70;;;;;;;;;;5428869;26;19979;-75
2024/04/21 13:05:51;;;;;;;1.63;1.07;;;;;;;;;;5366256;26;20059;-75
2024/04/21 13:08:22;;;;;;;0.85;0.50;;;;;;;;;;5397107;26;20000;-76
2024/04/21 13:11:11;;;;;;;1.23;0.47;;;;;;;;;;5396755;26;19996;-75
2024/04/21 13:13:49;;;;;;;1.00;0.60;;;;;;;;;;5397759;26;19984;-75
2024/04/21 13:16:18;;;;;;;0.85;0.57;;;;;;;;;;5389865;26;20003;-73
2024/04/21 13:18:52;;;;;;;0.85;0.47;;;;;;;;;;5395698;26;20055;-74
2024/04/21 13:21:29;;;;;;;1.33;0.60;;;;;;;;;;5388249;26;20008;-74
2024/04/21 13:24:10;;;;;;;0.70;0.40;;;;;;;;;;5392266;26;20000;-75
2024/04/21 13:26:42;;;;;;;1.52;0.80;;;;;;;;;;5396620;26;19992;-75
2024/04/21 13:29:16;;;;;;;0.95;0.70;;;;;;;;;;5397823;26;20038;-74
2024/04/21 13:32:01;;;;;;;1.00;0.63;;;;;;;;;;5395769;26;19992;-75
2024/04/21 13:34:52;;;;;;;0.70;0.50;;;;;;;;;;5397450;26;19992;-74
2024/04/21 13:37:38;;;;;;;0.90;0.80;;;;;;;;;;5429654;26;19988;-76
2024/04/21 13:40:10;;;;;;;1.80;0.83;;;;;;;;;;5399713;26;20016;-75
2024/04/21 13:43:24;;;;;;;;;;;;;;;;;;;;;
2024/04/21 13:45:52;;;;;;;1.00;0.90;;;;;;;;;;5397227;26;20004;-76
2024/04/21 13:48:27;;;;;;;0.70;0.60;;;;;;;;;;5396220;26;20015;-76
2024/04/21 13:51:03;;;;;;;;;;;;;;;;;;;;;
2024/04/21 13:53:50;;;;;;;1.73;0.90;;;;;;;;;;5399373;26;20004;-75
2024/04/21 13:59:02;;;;;;;3.00;1.80;;;;;;;;;;5388585;26;20004;-75
2024/04/21 14:01:53;;;;;;;0.93;0.80;;;;;;;;;;5363549;26;20035;-75
2024/04/21 14:04:26;;;;;;;1.73;0.80;;;;;;;;;;5393214;26;19992;-76
2024/04/21 14:06:58;;;;;;;0.93;0.67;;;;;;;;;;5399549;26;19988;-76
2024/04/21 14:09:56;;;;;;;;;;;;;;;;;;;;;
2024/04/21 14:13:01;;;;;;;0.93;0.73;;;;;;;;;;5399982;26;19991;-76
2024/04/21 14:15:35;;;;;;;0.93;0.63;;;;;;;;;;5400013;26;20025;-76
2024/04/21 14:18:36;;;;;;;1.20;1.10;;;;;;;;;;5400017;26;20004;-75
2024/04/21 14:21:10;;;;;;;2.83;0.70;;;;;;;;;;5370472;26;20001;-76
2024/04/21 14:23:39;;;;;;;1.30;0.70;;;;;;;;;;5400004;26;19996;-76
2024/04/21 14:26:37;;;;;;;1.10;0.50;;;;;;;;;;5397451;26;20008;-76
2024/04/21 14:29:06;;;;;;;1.27;0.63;;;;;;;;;;5366636;26;19992;-76
2024/04/21 14:31:34;;;;;;;1.13;0.60;;;;;;;;;;5366995;26;20033;-76
2024/04/21 14:34:03;;;;;;;1.17;0.70;;;;;;;;;;5359696;26;20038;-76
2024/04/21 14:36:49;;;;;;;1.47;0.60;;;;;;;;;;5397111;26;19990;-76
2024/04/21 14:39:23;;;;;;;0.93;0.60;;;;;;;;;;5388629;26;19996;-76
2024/04/21 14:41:52;;;;;;;1.43;0.70;;;;;;;;;;5363885;26;19996;-75
2024/04/21 14:44:25;;;;;;;1.10;0.60;;;;;;;;;;5386844;26;20080;-76
2024/04/21 14:47:03;;;;;;;1.23;0.70;;;;;;;;;;5387561;26;19988;-75
2024/04/21 14:49:34;;;;;;;1.87;1.07;;;;;;;;;;5394621;26;20004;-76
2024/04/21 14:52:02;;;;;;;1.10;0.80;;;;;;;;;;5396171;26;19996;-76
2024/04/21 14:54:38;;;;;;;1.97;0.90;;;;;;;;;;5389067;26;19991;-76
2024/04/21 14:57:04;;;;;;;2.33;0.80;;;;;;;;;;5388915;26;19988;-76
2024/04/21 15:02:52;;;;;;;2.70;0.70;;;;;;;;;;5397144;26;19995;-76
2024/04/21 15:05:23;;;;;;;1.70;1.03;;;;;;;;;;5396401;26;20000;-76
2024/04/21 15:10:41;;;;;;;1.07;0.83;;;;;;;;;;5375081;26;20017;-75
2024/04/21 15:13:12;;;;;;;1.73;0.60;;;;;;;;;;5397366;26;20003;-76
2024/04/21 15:15:47;;;;;;;2.08;0.63;;;;;;;;;;5397258;26;19996;-76
2024/04/21 15:18:32;;;;;;;1.33;0.50;;;;;;;;;;5377134;26;20015;-76
2024/04/21 15:21:12;;;;;;;0.80;0.60;;;;;;;;;;5396617;26;20043;-75
2024/04/21 15:23:49;;;;;;;1.03;0.50;;;;;;;;;;5360831;26;19992;-76
2024/04/21 15:26:18;;;;;;;1.47;0.67;;;;;;;;;;5396110;26;20004;-76
2024/04/21 15:28:55;;;;;;;0.77;0.50;;;;;;;;;;5396195;26;20019;-76
2024/04/21 15:31:27;;;;;;;0.60;0.50;;;;;;;;;;5396281;26;20012;-75
2024/04/21 15:34:04;;;;;;;1.13;0.60;;;;;;;;;;5395421;26;20293;-76
2024/04/21 15:36:45;;;;;;;1.67;1.23;;;;;;;;;;5396112;26;20068;-75
2024/04/21 15:39:36;;;;;;;0.60;0.50;;;;;;;;;;5395182;26;20007;-75
2024/04/21 15:42:29;;;;;;;1.03;0.40;;;;;;;;;;5366453;26;19996;-76
2024/04/21 15:45:04;;;;;;;4.15;1.13;;;;;;;;;;5387070;26;20107;-76
2024/04/21 15:47:36;;;;;;;2.03;1.17;;;;;;;;;;5395840;26;20056;-76
2024/04/21 15:50:08;;;;;;;3.07;1.43;;;;;;;;;;5393057;26;19999;-76
2024/04/21 15:52:38;;;;;;;1.52;0.68;;;;;;;;;;5396975;26;20002;-76
2024/04/21 15:55:38;;;;;;;0.93;0.80;;;;;;;;;;5389502;26;20013;-76
2024/04/21 15:58:23;;;;;;;;;;;;;;;;;;;;;
2024/04/21 16:00:59;;;;;;;1.63;1.00;;;;;;;;;;5397748;26;19992;-76
2024/04/21 16:03:48;;;;;;;;;;;;;;;;;;;;;
2024/04/21 16:06:28;;;;;;;1.23;0.70;;;;;;;;;;5396571;26;20170;-75
2024/04/21 16:09:16;;;;;;;0.73;0.63;;;;;;;;;;5425434;26;20000;-76
2024/04/21 16:11:45;;;;;;;1.27;0.70;;;;;;;;;;5360509;26;20006;-75
2024/04/21 16:14:17;;;;;;;1.40;0.77;;;;;;;;;;5396820;26;19989;-74
2024/04/21 16:16:55;;;;;;;0.77;0.65;;;;;;;;;;5396611;26;20000;-75
2024/04/21 16:19:35;;;;;;;1.60;0.80;;;;;;;;;;5398180;26;20263;-74
2024/04/21 16:22:18;;;;;;;1.73;0.50;;;;;;;;;;5389312;26;20010;-74
2024/04/21 16:24:50;;;;;;;1.73;0.90;;;;;;;;;;5401180;26;20000;-75
2024/04/21 16:27:45;;;;;;;0.77;0.55;;;;;;;;;;5393318;26;20019;-76
2024/04/21 16:30:16;;;;;;;1.37;0.80;;;;;;;;;;5400536;26;20072;-75
2024/04/21 16:33:05;;;;;;;1.80;0.90;;;;;;;;;;5368877;26;20004;-75
2024/04/21 16:35:36;;;;;;;0.77;0.43;;;;;;;;;;5401098;26;20004;-75
2024/04/21 16:38:17;;;;;;;1.40;0.70;;;;;;;;;;5397615;26;20045;-75
2024/04/21 16:40:48;;;;;;;1.10;0.47;;;;;;;;;;5394574;26;19988;-74
2024/04/21 16:43:27;;;;;;;0.53;0.40;;;;;;;;;;5399281;26;19993;-75
2024/04/21 16:46:21;;;;;;;2.00;0.60;;;;;;;;;;5371278;26;20004;-75